Time,TemperatureF,DewpointF,PressureIn,WindDirection,WindDirectionDegrees,WindSpeedMPH,WindSpeedGustMPH,Humidity,HourlyPrecipIn,Conditions,Clouds,dailyrainin,SoftwareType,DateUTC
2013-02-21 00:01:00,18.0,11.0,-100.00,SW,220,2.0,3.0,75,-99.99,,,0.00,,2013-02-21 07:01:00,
2013-02-21 00:11:00,17.0,10.0,-100.00,WSW,240,3.0,4.0,73,-99.99,,,-99.99,,2013-02-21 07:11:00,
2013-02-21 00:21:00,17.0,10.0,-100.00,WSW,240,3.0,4.0,73,-99.99,,,-99.99,,2013-02-21 07:21:00,
2013-02-21 00:31:00,17.0,10.0,-100.00,WSW,240,3.0,4.0,73,-99.99,,,-99.99,,2013-02-21 07:31:00,
2013-02-21 01:01:00,14.0,9.0,-100.00,South,190,1.0,1.0,80,-99.99,,,0.00,,2013-02-21 08:01:00,
2013-02-21 01:31:00,14.0,9.0,-100.00,South,190,1.0,1.0,80,-99.99,,,0.00,,2013-02-21 08:31:00,
2013-02-21 01:41:00,14.0,9.0,-100.00,South,190,1.0,1.0,80,-99.99,,,0.00,,2013-02-21 08:41:00,
2013-02-21 01:51:00,14.0,9.0,-100.00,South,190,1.0,1.0,80,-99.99,,,0.00,,2013-02-21 08:51:00,
2013-02-21 02:11:00,14.0,9.0,-100.00,SSW,205,0.0,2.0,81,-99.99,,,0.00,,2013-02-21 09:11:00,
2013-02-21 02:22:00,14.0,9.0,-100.00,SSW,205,0.0,2.0,81,-99.99,,,0.00,,2013-02-21 09:22:00,
2013-02-21 04:01:00,10.0,5.0,-100.00,NE,50,2.0,5.0,80,-99.99,,,0.00,,2013-02-21 11:01:00,
2013-02-21 04:11:00,10.0,6.0,-100.00,NE,40,1.0,4.0,82,-99.99,,,0.00,,2013-02-21 11:11:00,
2013-02-21 04:21:00,10.0,6.0,-100.00,NE,40,1.0,4.0,82,-99.99,,,0.00,,2013-02-21 11:21:00,
2013-02-21 04:31:00,10.0,5.0,-100.00,NE,50,2.0,5.0,80,-99.99,,,0.00,,2013-02-21 11:31:00,
2013-02-21 04:41:00,10.0,5.0,-100.00,NE,50,2.0,5.0,80,-99.99,,,0.00,,2013-02-21 11:41:00,
2013-02-21 04:51:00,10.0,5.0,-100.00,NE,50,2.0,5.0,80,-99.99,,,0.00,,2013-02-21 11:51:00,
2013-02-21 05:01:00,6.0,3.0,-100.00,NNE,15,6.0,8.0,84,-99.99,,,0.00,,2013-02-21 12:01:00,
2013-02-21 05:11:00,7.0,3.0,-100.00,NE,40,2.0,3.0,81,-99.99,,,0.00,,2013-02-21 12:11:00,
2013-02-21 05:21:00,7.0,3.0,-100.00,NE,40,2.0,3.0,81,-99.99,,,0.00,,2013-02-21 12:21:00,
2013-02-21 05:31:00,5.0,2.0,-100.00,NE,35,3.0,6.0,85,-99.99,,,0.00,,2013-02-21 12:31:00,
2013-02-21 05:32:00,6.0,3.0,-100.00,NNE,15,6.0,8.0,84,-99.99,,,0.00,,2013-02-21 12:32:00,
2013-02-21 05:42:00,6.0,3.0,-100.00,NNE,15,6.0,8.0,84,-99.99,,,0.00,,2013-02-21 12:42:00,
2013-02-21 05:52:00,6.0,3.0,-100.00,NNE,15,6.0,8.0,84,-99.99,,,0.00,,2013-02-21 12:52:00,
2013-02-21 06:02:00,4.0,0.0,-100.00,NE,35,4.0,5.0,84,-99.99,,,0.00,,2013-02-21 13:02:00,
2013-02-21 06:12:00,5.0,2.0,-100.00,NE,35,3.0,6.0,85,-99.99,,,0.00,,2013-02-21 13:12:00,
2013-02-21 06:22:00,5.0,2.0,-100.00,NE,35,3.0,6.0,85,-99.99,,,0.00,,2013-02-21 13:22:00,
2013-02-21 06:51:00,4.0,0.0,-100.00,NE,35,4.0,5.0,84,-99.99,,,0.00,,2013-02-21 13:51:00,
2013-02-21 07:00:00,-2.0,-7.0,-100.00,ESE,110,2.0,6.0,81,-99.99,,,0.00,,2013-02-21 14:00:00,
2013-02-21 07:11:00,-6.0,-11.0,-100.00,SSW,200,2.0,4.0,78,-99.99,,,0.00,,2013-02-21 14:11:00,
2013-02-21 07:21:00,-6.0,-11.0,-100.00,SSW,200,2.0,4.0,78,-99.99,,,0.00,,2013-02-21 14:21:00,
2013-02-21 07:32:00,-2.0,-7.0,-100.00,ESE,110,2.0,6.0,81,-99.99,,,0.00,,2013-02-21 14:32:00,
2013-02-21 07:41:00,-2.0,-7.0,-100.00,ESE,110,2.0,6.0,81,-99.99,,,0.00,,2013-02-21 14:41:00,
2013-02-21 07:52:00,-2.0,-7.0,-100.00,ESE,110,2.0,6.0,81,-99.99,,,0.00,,2013-02-21 14:52:00,
2013-02-21 08:01:00,-7.0,-12.0,-100.00,NNE,25,1.0,2.0,79,-99.99,,,0.00,,2013-02-21 15:01:00,
2013-02-21 08:12:00,-8.0,-13.0,-100.00,SSW,200,0.0,1.0,78,-99.99,,,0.00,,2013-02-21 15:12:00,
2013-02-21 08:31:00,-7.0,-12.0,-100.00,NNE,25,1.0,2.0,79,-99.99,,,0.00,,2013-02-21 15:31:00,
2013-02-21 08:42:00,-7.0,-12.0,-100.00,NNE,25,1.0,2.0,79,-99.99,,,0.00,,2013-02-21 15:42:00,
2013-02-21 08:51:00,-7.0,-12.0,-100.00,NNE,25,1.0,2.0,79,-99.99,,,0.00,,2013-02-21 15:51:00,
2013-02-21 09:01:00,-6.0,-11.0,-100.00,ESE,110,3.0,5.0,79,-99.99,,,0.00,,2013-02-21 16:01:00,
2013-02-21 09:12:00,-8.0,-13.0,-100.00,SW,215,0.0,4.0,79,-99.99,,,0.00,,2013-02-21 16:12:00,
2013-02-21 09:31:00,-6.0,-11.0,-100.00,ESE,110,3.0,5.0,79,-99.99,,,0.00,,2013-02-21 16:31:00,
2013-02-21 09:42:00,-6.0,-11.0,-100.00,ESE,110,3.0,5.0,79,-99.99,,,0.00,,2013-02-21 16:42:00,
2013-02-21 09:52:00,-6.0,-11.0,-100.00,ESE,110,3.0,5.0,79,-99.99,,,0.00,,2013-02-21 16:52:00,
2013-02-21 10:31:00,13.0,10.0,-100.00,SW,235,0.0,1.0,88,-99.99,,,0.00,,2013-02-21 17:31:00,
2013-02-21 10:32:00,-1.0,-6.0,-100.00,NE,35,1.0,3.0,81,-99.99,,,0.00,,2013-02-21 17:32:00,
2013-02-21 10:42:00,-1.0,-6.0,-100.00,NE,35,1.0,3.0,81,-99.99,,,0.00,,2013-02-21 17:42:00,
2013-02-21 10:52:00,-1.0,-6.0,-100.00,NE,35,1.0,3.0,81,-99.99,,,0.00,,2013-02-21 17:52:00,
2013-02-21 11:01:00,-1.0,-6.0,-100.00,NE,35,1.0,3.0,81,-99.99,,,0.00,,2013-02-21 18:01:00,
2013-02-21 11:11:00,13.0,10.0,-100.00,SW,235,0.0,1.0,88,-99.99,,,0.00,,2013-02-21 18:11:00,
2013-02-21 11:22:00,13.0,10.0,-100.00,SW,235,0.0,1.0,88,-99.99,,,0.00,,2013-02-21 18:22:00,
2013-02-21 11:51:00,15.0,6.0,-100.00,WSW,250,8.0,11.0,67,-99.99,,,0.00,,2013-02-21 18:51:00,
2013-02-21 12:01:00,15.0,6.0,-100.00,WSW,250,8.0,11.0,67,-99.99,,,0.00,,2013-02-21 19:01:00,
2013-02-21 12:11:00,17.0,6.0,-100.00,WSW,250,6.0,15.0,62,-99.99,,,0.00,,2013-02-21 19:11:00,
2013-02-21 12:21:00,17.0,6.0,-100.00,WSW,250,6.0,15.0,62,-99.99,,,0.00,,2013-02-21 19:21:00,
2013-02-21 12:31:00,18.0,7.0,-100.00,West,260,6.0,9.0,59,-99.99,,,0.00,,2013-02-21 19:31:00,
2013-02-21 12:42:00,18.0,7.0,-100.00,West,260,6.0,9.0,59,-99.99,,,0.00,,2013-02-21 19:42:00,
2013-02-21 12:51:00,18.0,7.0,-100.00,West,260,6.0,9.0,59,-99.99,,,0.00,,2013-02-21 19:51:00,
2013-02-21 13:01:00,18.0,7.0,-100.00,West,260,6.0,9.0,59,-99.99,,,0.00,,2013-02-21 20:01:00,
2013-02-21 13:11:00,18.0,7.0,-100.00,WSW,250,5.0,8.0,59,-99.99,,,0.00,,2013-02-21 20:11:00,
2013-02-21 13:21:00,18.0,7.0,-100.00,WSW,250,5.0,8.0,59,-99.99,,,0.00,,2013-02-21 20:21:00,
2013-02-21 13:31:00,21.0,6.0,-100.00,WSW,250,4.0,5.0,53,-99.99,,,0.00,,2013-02-21 20:31:00,
2013-02-21 13:41:00,21.0,6.0,-100.00,WSW,250,4.0,5.0,53,-99.99,,,0.00,,2013-02-21 20:41:00,
2013-02-21 13:52:00,21.0,6.0,-100.00,WSW,250,4.0,5.0,53,-99.99,,,0.00,,2013-02-21 20:52:00,
2013-02-21 14:01:00,21.0,8.0,-100.00,SSW,210,10.0,14.0,56,-99.99,,,0.00,,2013-02-21 21:01:00,
2013-02-21 14:11:00,21.0,7.0,-100.00,West,260,9.0,11.0,52,-99.99,,,0.00,,2013-02-21 21:11:00,
2013-02-21 14:21:00,21.0,7.0,-100.00,West,260,9.0,11.0,52,-99.99,,,0.00,,2013-02-21 21:21:00,
2013-02-21 14:31:00,21.0,8.0,-100.00,SSW,210,10.0,14.0,56,-99.99,,,0.00,,2013-02-21 21:31:00,
2013-02-21 14:42:00,21.0,8.0,-100.00,SSW,210,10.0,14.0,56,-99.99,,,0.00,,2013-02-21 21:42:00,
2013-02-21 14:51:00,21.0,8.0,-100.00,SSW,210,10.0,14.0,56,-99.99,,,0.00,,2013-02-21 21:51:00,
2013-02-21 15:00:00,22.0,8.0,-100.00,NW,315,10.0,13.0,55,-99.99,,,0.00,,2013-02-21 22:00:00,
2013-02-21 15:11:00,22.0,9.0,-100.00,SW,220,12.0,17.0,58,-99.99,,,0.00,,2013-02-21 22:11:00,
2013-02-21 15:21:00,22.0,9.0,-100.00,SW,220,12.0,17.0,58,-99.99,,,0.00,,2013-02-21 22:21:00,
2013-02-21 15:31:00,22.0,8.0,-100.00,NW,315,10.0,13.0,55,-99.99,,,0.00,,2013-02-21 22:31:00,
2013-02-21 15:41:00,22.0,8.0,-100.00,NW,315,10.0,13.0,55,-99.99,,,0.00,,2013-02-21 22:41:00,
2013-02-21 15:52:00,22.0,8.0,-100.00,NW,315,10.0,13.0,55,-99.99,,,0.00,,2013-02-21 22:52:00,
2013-02-21 16:01:00,21.0,9.0,-100.00,WSW,240,13.0,18.0,61,-99.99,,,0.00,,2013-02-21 23:01:00,
2013-02-21 16:31:00,21.0,9.0,-100.00,WSW,240,13.0,18.0,61,-99.99,,,0.00,,2013-02-21 23:31:00,
2013-02-21 16:41:00,21.0,9.0,-100.00,WSW,240,13.0,18.0,61,-99.99,,,0.00,,2013-02-21 23:41:00,
2013-02-21 16:52:00,21.0,9.0,-100.00,WSW,240,13.0,18.0,61,-99.99,,,0.00,,2013-02-21 23:52:00,
2013-02-21 17:00:00,20.0,8.0,-100.00,WSW,240,6.0,11.0,59,-99.99,,,0.00,,2013-02-22 00:00:00,
2013-02-21 17:11:00,20.0,7.0,-100.00,WSW,245,9.0,14.0,58,-99.99,,,0.00,,2013-02-22 00:11:00,
2013-02-21 17:21:00,20.0,7.0,-100.00,WSW,245,9.0,14.0,58,-99.99,,,0.00,,2013-02-22 00:21:00,
2013-02-21 17:31:00,20.0,8.0,-100.00,WSW,240,6.0,11.0,59,-99.99,,,0.00,,2013-02-22 00:31:00,
2013-02-21 17:41:00,20.0,8.0,-100.00,WSW,240,6.0,11.0,59,-99.99,,,0.00,,2013-02-22 00:41:00,
2013-02-21 17:51:00,20.0,8.0,-100.00,WSW,240,6.0,11.0,59,-99.99,,,0.00,,2013-02-22 00:51:00,
2013-02-21 18:00:00,20.0,11.0,-100.00,WSW,250,9.0,12.0,66,-99.99,,,0.00,,2013-02-22 01:00:00,
2013-02-21 18:11:00,20.0,9.0,-100.00,WSW,250,9.0,12.0,60,-99.99,,,0.00,,2013-02-22 01:11:00,
2013-02-21 18:21:00,20.0,9.0,-100.00,WSW,250,9.0,12.0,60,-99.99,,,0.00,,2013-02-22 01:21:00,
2013-02-21 18:51:00,20.0,11.0,-100.00,WSW,250,9.0,12.0,66,-99.99,,,0.00,,2013-02-22 01:51:00,
2013-02-21 19:11:00,20.0,12.0,-100.00,SW,225,7.0,9.0,72,-99.99,,,0.00,,2013-02-22 02:11:00,
2013-02-21 19:21:00,20.0,12.0,-100.00,SW,225,7.0,9.0,72,-99.99,,,0.00,,2013-02-22 02:21:00,
2013-02-21 19:31:00,19.0,12.0,-100.00,SW,225,8.0,11.0,73,-99.99,,,0.00,,2013-02-22 02:31:00,
2013-02-21 19:42:00,19.0,12.0,-100.00,SW,225,8.0,11.0,73,-99.99,,,0.00,,2013-02-22 02:42:00,
2013-02-21 19:52:00,19.0,12.0,-100.00,SW,225,8.0,11.0,73,-99.99,,,0.00,,2013-02-22 02:52:00,
2013-02-21 20:01:00,19.0,12.0,-100.00,SW,225,8.0,11.0,73,-99.99,,,0.00,,2013-02-22 03:01:00,
2013-02-21 20:11:00,19.0,13.0,-100.00,SW,230,8.0,12.0,76,-99.99,,,-99.99,,2013-02-22 03:11:00,
2013-02-21 20:21:00,19.0,13.0,-100.00,SW,230,8.0,12.0,76,-99.99,,,-99.99,,2013-02-22 03:21:00,
2013-02-21 20:31:00,18.0,13.0,-100.00,SW,235,7.0,8.0,77,-99.99,,,0.00,,2013-02-22 03:31:00,
2013-02-21 20:32:00,18.0,12.0,-100.00,SW,225,11.0,13.0,75,-99.99,,,0.00,,2013-02-22 03:32:00,
2013-02-21 20:41:00,18.0,13.0,-100.00,SW,235,7.0,8.0,77,-99.99,,,0.00,,2013-02-22 03:41:00,
2013-02-21 20:51:00,18.0,13.0,-100.00,SW,235,7.0,8.0,77,-99.99,,,0.00,,2013-02-22 03:51:00,
2013-02-21 21:11:00,18.0,12.0,-100.00,SW,225,11.0,13.0,75,-99.99,,,0.00,,2013-02-22 04:11:00,
2013-02-21 21:21:00,18.0,12.0,-100.00,SW,225,11.0,13.0,75,-99.99,,,0.00,,2013-02-22 04:21:00,
2013-02-21 22:01:00,19.0,14.0,-100.00,SW,230,11.0,12.0,80,-99.99,,,0.00,,2013-02-22 05:01:00,
2013-02-21 22:12:00,19.0,14.0,-100.00,SW,225,11.0,12.0,81,-99.99,,,0.00,,2013-02-22 05:12:00,
2013-02-21 22:22:00,19.0,14.0,-100.00,SW,225,11.0,12.0,81,-99.99,,,0.00,,2013-02-22 05:22:00,
2013-02-21 22:32:00,19.0,14.0,-100.00,SW,230,11.0,12.0,80,-99.99,,,0.00,,2013-02-22 05:32:00,
2013-02-21 22:41:00,19.0,14.0,-100.00,SW,230,11.0,12.0,80,-99.99,,,0.00,,2013-02-22 05:41:00,
2013-02-21 22:52:00,19.0,14.0,-100.00,SW,230,11.0,12.0,80,-99.99,,,0.00,,2013-02-22 05:52:00,
2013-02-21 23:01:00,19.0,14.0,-100.00,WSW,245,6.0,9.0,80,-99.99,,,0.00,,2013-02-22 06:01:00,
2013-02-21 23:11:00,19.0,14.0,-100.00,SW,225,10.0,14.0,80,-99.99,,,0.00,,2013-02-22 06:11:00,
2013-02-21 23:21:00,19.0,14.0,-100.00,SW,225,10.0,14.0,80,-99.99,,,0.00,,2013-02-22 06:21:00,
2013-02-21 23:31:00,19.0,14.0,-100.00,WSW,245,6.0,9.0,80,-99.99,,,0.00,,2013-02-22 06:31:00,
2013-02-21 23:42:00,19.0,14.0,-100.00,WSW,245,6.0,9.0,80,-99.99,,,0.00,,2013-02-22 06:42:00,
2013-02-21 23:51:00,19.0,14.0,-100.00,WSW,245,6.0,9.0,80,-99.99,,,0.00,,2013-02-22 06:51:00,